Time;durP1;ratioP1;P1;durP2;ratioP2;P2;SDS_P1;SDS_P2;PMS_P1;PMS_P2;Temp;Humidity;BMP_temperature;BMP_pressure;BME280_temperature;BME280_humidity;BME280_pressure;Samples;Min_cycle;Max_cycle;Signal;HPM_P1;HPM_P2
2023/02/04 00:02:04;;;;;;;3.30;2.20;;;4.10;99.90;;;;;;6181579;23;20433;-76
2023/02/04 00:04:31;;;;;;;2.70;2.30;;;4.10;99.90;;;;;;6180737;23;20458;-75
2023/02/04 00:06:58;;;;;;;2.63;2.23;;;4.10;99.90;;;;;;6180392;23;20408;-75
2023/02/04 00:09:24;;;;;;;3.20;2.50;;;4.10;99.90;;;;;;6180258;23;20419;-76
2023/02/04 00:11:51;;;;;;;3.00;2.00;;;4.10;99.90;;;;;;6180993;23;20739;-76
2023/02/04 00:14:18;;;;;;;2.50;2.30;;;4.20;99.90;;;;;;6180360;23;20422;-74
2023/02/04 00:16:44;;;;;;;3.90;2.87;;;4.10;99.90;;;;;;6180214;23;20418;-75
2023/02/04 00:19:12;;;;;;;2.37;2.17;;;4.10;99.90;;;;;;6180479;23;20404;-76
2023/02/04 00:21:39;;;;;;;2.40;2.20;;;4.00;99.90;;;;;;6180362;23;20411;-75
2023/02/04 00:24:06;;;;;;;2.40;2.20;;;4.10;99.90;;;;;;6180869;23;20450;-76
2023/02/04 00:26:33;;;;;;;2.57;2.37;;;4.10;99.90;;;;;;6180362;23;20408;-77
2023/02/04 00:29:00;;;;;;;2.40;2.27;;;4.10;99.90;;;;;;6180258;23;20404;-75
2023/02/04 00:31:26;;;;;;;2.50;2.30;;;4.10;99.90;;;;;;6179971;23;20427;-74
2023/02/04 00:33:53;;;;;;;2.53;2.20;;;4.10;99.90;;;;;;6180006;23;20407;-74
2023/02/04 00:36:21;;;;;;;3.13;2.93;;;4.10;99.90;;;;;;6180782;23;20412;-75
2023/02/04 00:38:48;;;;;;;1.50;1.40;;;4.20;99.90;;;;;;6180445;23;20808;-76
2023/02/04 00:41:15;;;;;;;2.83;2.63;;;4.10;99.90;;;;;;6180144;23;20415;-76
2023/02/04 00:43:41;;;;;;;2.07;1.97;;;4.10;99.90;;;;;;6180157;23;20443;-75
2023/02/04 00:46:08;;;;;;;4.27;2.20;;;4.10;99.90;;;;;;6180531;23;20744;-74
2023/02/04 00:48:35;;;;;;;2.43;2.23;;;3.80;99.90;;;;;;6180419;23;20415;-75
2023/02/04 00:51:02;;;;;;;2.17;2.00;;;4.00;99.90;;;;;;6179824;23;20455;-75
2023/02/04 00:53:30;;;;;;;2.10;2.00;;;4.10;99.90;;;;;;6179846;23;20448;-75
2023/02/04 00:55:57;;;;;;;2.90;2.30;;;4.10;99.90;;;;;;6179977;23;20869;-75
2023/02/04 00:58:23;;;;;;;2.43;2.23;;;4.10;99.90;;;;;;6180236;23;20409;-75
2023/02/04 01:00:50;;;;;;;2.43;2.30;;;4.00;99.90;;;;;;6180382;23;20416;-74
2023/02/04 01:03:17;;;;;;;1.93;1.70;;;4.00;99.90;;;;;;6179858;23;20444;-76
2023/02/04 01:05:44;;;;;;;2.73;2.53;;;4.00;99.90;;;;;;6180041;23;20393;-75
2023/02/04 01:08:11;;;;;;;2.00;1.80;;;4.00;99.90;;;;;;6179855;23;20415;-74
2023/02/04 01:10:39;;;;;;;2.30;2.10;;;4.00;99.90;;;;;;6180510;23;20408;-74
2023/02/04 01:13:07;;;;;;;1.50;1.40;;;4.00;99.90;;;;;;6180321;23;20412;-77
2023/02/04 01:15:33;;;;;;;2.27;2.07;;;4.00;99.90;;;;;;6180486;23;20466;-76
2023/02/04 01:18:00;;;;;;;1.93;1.70;;;4.00;99.90;;;;;;6179850;23;20416;-75
2023/02/04 01:20:27;;;;;;;2.50;2.30;;;4.00;99.90;;;;;;6179918;23;20424;-76
2023/02/04 01:22:54;;;;;;;2.60;2.00;;;4.00;99.90;;;;;;6180127;23;20411;-75
2023/02/04 01:25:21;;;;;;;2.10;1.90;;;4.00;99.90;;;;;;6179725;23;20823;-75
2023/02/04 01:27:49;;;;;;;7.23;1.80;;;4.00;99.90;;;;;;6179602;23;20419;-75
2023/02/04 01:30:16;;;;;;;2.47;1.90;;;4.00;99.90;;;;;;6179842;23;20412;-75
2023/02/04 01:32:43;;;;;;;1.83;1.73;;;4.10;99.90;;;;;;6179715;23;20412;-76
2023/02/04 01:35:10;;;;;;;3.60;1.50;;;4.10;99.90;;;;;;6179891;23;20403;-76
2023/02/04 01:37:37;;;;;;;1.77;1.50;;;4.20;99.90;;;;;;6180364;23;20435;-75
2023/02/04 01:40:05;;;;;;;4.13;1.70;;;4.20;99.90;;;;;;6179449;23;20437;-76
2023/02/04 01:42:31;;;;;;;2.67;1.53;;;4.20;99.90;;;;;;6179969;23;20412;-76
2023/02/04 01:45:00;;;;;;;1.53;1.40;;;4.20;99.90;;;;;;6179610;23;20440;-75
2023/02/04 01:47:26;;;;;;;1.80;1.50;;;4.20;99.90;;;;;;6179996;23;20419;-76
2023/02/04 01:49:55;;;;;;;2.20;1.40;;;4.20;99.90;;;;;;6179186;23;20420;-75
2023/02/04 01:52:23;;;;;;;2.70;1.30;;;4.20;99.90;;;;;;6179828;23;20428;-75
2023/02/04 01:54:49;;;;;;;1.70;1.60;;;4.20;99.90;;;;;;6178998;23;21004;-75
2023/02/04 01:57:17;;;;;;;1.53;1.40;;;4.20;99.90;;;;;;6179228;23;20610;-75
2023/02/04 01:59:45;;;;;;;2.60;1.50;;;4.20;99.90;;;;;;6179648;23;20411;-75
2023/02/04 02:02:42;;;;;;;1.80;1.70;;;4.30;99.90;;;;;;6179927;23;20495;-75
2023/02/04 02:05:11;;;;;;;1.47;1.37;;;4.30;99.90;;;;;;6179742;23;20432;-76
2023/02/04 02:07:38;;;;;;;3.27;1.70;;;4.30;99.90;;;;;;6179599;23;20790;-76
2023/02/04 02:10:07;;;;;;;1.77;1.40;;;4.30;99.90;;;;;;6179470;23;20433;-76
2023/02/04 02:12:34;;;;;;;4.37;1.80;;;4.30;99.90;;;;;;6181183;23;20410;-76
2023/02/04 02:15:01;;;;;;;2.77;1.67;;;4.40;99.90;;;;;;6179381;23;20412;-76
2023/02/04 02:17:28;;;;;;;2.80;1.70;;;4.40;99.90;;;;;;6179920;23;20419;-76
2023/02/04 02:19:56;;;;;;;3.20;1.60;;;4.40;99.90;;;;;;6179730;23;20443;-75
2023/02/04 02:22:27;;;;;;;4.67;2.57;;;4.40;99.90;;;;;;6179257;23;20391;-76
2023/02/04 02:24:55;;;;;;;3.03;2.03;;;4.40;99.90;;;;;;6179410;23;20955;-76
2023/02/04 02:27:22;;;;;;;10.93;3.20;;;4.40;99.90;;;;;;6179548;23;20599;-76
2023/02/04 02:29:50;;;;;;;4.03;2.37;;;4.40;99.90;;;;;;6179346;23;20415;-76
2023/02/04 02:32:17;;;;;;;4.33;2.47;;;4.40;99.90;;;;;;6179012;23;20408;-75
2023/02/04 02:34:45;;;;;;;4.37;2.00;;;;;;;;;;6179694;23;20407;-75
2023/02/04 02:37:12;;;;;;;4.67;2.87;;;4.60;99.90;;;;;;6179718;23;20403;-76
2023/02/04 02:39:41;;;;;;;5.97;2.63;;;4.40;99.90;;;;;;6179384;23;20412;-77
2023/02/04 02:42:11;;;;;;;3.53;2.17;;;4.40;99.90;;;;;;6179269;23;20894;-76
2023/02/04 02:44:38;;;;;;;5.10;3.60;;;4.40;99.90;;;;;;6179083;23;21004;-74
2023/02/04 02:47:04;;;;;;;5.83;3.50;;;4.30;99.90;;;;;;6178455;23;20415;-76
2023/02/04 02:49:33;;;;;;;6.50;3.47;;;4.30;99.90;;;;;;6179385;23;20408;-75
2023/02/04 02:52:00;;;;;;;9.43;3.80;;;4.30;99.90;;;;;;6179259;23;20432;-75
2023/02/04 02:54:29;;;;;;;13.00;3.30;;;4.00;99.90;;;;;;6179204;23;20515;-77
2023/02/04 02:56:57;;;;;;;5.70;2.43;;;4.30;99.90;;;;;;6178930;23;20445;-75
2023/02/04 02:59:26;;;;;;;7.43;4.10;;;4.20;99.90;;;;;;6179097;23;20910;-78
2023/02/04 03:01:56;;;;;;;6.87;3.90;;;4.20;99.90;;;;;;6179798;23;20417;-75
2023/02/04 03:04:24;;;;;;;7.77;3.53;;;4.20;99.90;;;;;;6183177;23;20937;-78
2023/02/04 03:06:52;;;;;;;17.23;5.73;;;4.20;99.90;;;;;;6181804;23;20630;-78
2023/02/04 03:09:19;;;;;;;9.77;3.90;;;4.20;99.90;;;;;;6182172;23;20404;-75
2023/02/04 03:11:46;;;;;;;7.90;3.90;;;4.20;99.90;;;;;;6184504;23;20408;-79
2023/02/04 03:14:13;;;;;;;10.53;3.80;;;4.20;99.90;;;;;;6179778;23;20407;-76
2023/02/04 03:16:43;;;;;;;15.60;5.37;;;4.20;99.90;;;;;;6179162;23;20420;-75
2023/02/04 03:19:11;;;;;;;5.43;3.53;;;4.20;99.90;;;;;;6178658;23;20776;-77
2023/02/04 03:21:38;;;;;;;9.70;4.47;;;4.10;99.90;;;;;;6178500;23;20411;-79
2023/02/04 03:24:05;;;;;;;8.57;3.50;;;4.20;99.90;;;;;;6179120;23;20526;-77
2023/02/04 03:26:33;;;;;;;15.50;5.73;;;4.10;99.90;;;;;;6179083;23;20898;-75
2023/02/04 03:28:59;;;;;;;16.20;4.23;;;4.10;99.90;;;;;;6179693;23;20408;-79
2023/02/04 03:31:26;;;;;;;7.43;3.33;;;4.10;99.90;;;;;;6183079;23;20411;-76
2023/02/04 03:33:54;;;;;;;8.80;3.00;;;4.10;99.90;;;;;;6183125;23;20500;-76
2023/02/04 03:36:21;;;;;;;9.47;3.93;;;4.00;99.90;;;;;;6184232;23;20430;-77
2023/02/04 03:38:48;;;;;;;17.57;4.20;;;4.00;99.90;;;;;;6183915;23;20407;-76
2023/02/04 03:41:14;;;;;;;7.80;4.20;;;4.00;99.90;;;;;;6183823;23;20448;-76
2023/02/04 03:43:41;;;;;;;14.93;4.83;;;4.00;99.90;;;;;;6183529;23;20419;-76
2023/02/04 03:46:08;;;;;;;15.90;5.63;;;4.00;99.90;;;;;;6179079;23;20447;-76
2023/02/04 03:48:35;;;;;;;6.60;3.90;;;4.00;99.90;;;;;;6178592;23;20898;-75
2023/02/04 03:51:03;;;;;;;7.30;4.33;;;4.00;99.90;;;;;;6179064;23;20408;-77
2023/02/04 03:53:30;;;;;;;15.80;4.50;;;4.00;99.90;;;;;;6178699;23;20444;-76
2023/02/04 03:55:56;;;;;;;6.83;3.27;;;4.00;99.90;;;;;;6178846;23;20393;-76
2023/02/04 03:58:23;;;;;;;6.63;3.60;;;4.00;99.90;;;;;;6178644;23;20417;-76
2023/02/04 04:00:50;;;;;;;12.00;4.00;;;4.00;99.90;;;;;;6178757;23;20430;-76
2023/02/04 04:03:17;;;;;;;10.70;4.03;;;3.90;99.90;;;;;;6178974;23;20443;-76
2023/02/04 04:05:44;;;;;;;13.17;4.83;;;3.90;99.90;;;;;;6178907;23;20444;-75
2023/02/04 04:08:12;;;;;;;8.87;3.97;;;4.00;99.90;;;;;;6179228;23;20422;-76
2023/02/04 04:10:38;;;;;;;8.60;4.00;;;4.00;99.90;;;;;;6178393;23;20732;-76
2023/02/04 04:13:05;;;;;;;7.43;3.53;;;3.90;99.90;;;;;;6179078;23;20411;-76
2023/02/04 04:15:32;;;;;;;10.30;3.50;;;3.90;99.90;;;;;;6181384;23;21027;-75
2023/02/04 04:17:59;;;;;;;9.57;4.00;;;3.90;99.90;;;;;;6181193;23;20412;-77
2023/02/04 04:20:26;;;;;;;9.60;3.80;;;3.80;99.90;;;;;;6180702;23;20471;-76
2023/02/04 04:22:53;;;;;;;5.87;3.60;;;3.80;99.90;;;;;;6180569;23;20419;-76
2023/02/04 04:25:21;;;;;;;11.67;3.70;;;3.70;99.90;;;;;;6180310;23;20956;-75
2023/02/04 04:27:48;;;;;;;11.23;4.00;;;3.70;99.90;;;;;;6180138;23;20410;-76
2023/02/04 04:30:15;;;;;;;6.23;4.00;;;3.60;99.90;;;;;;6180655;23;20408;-77
2023/02/04 04:32:42;;;;;;;15.40;5.00;;;3.60;99.90;;;;;;6180677;23;20604;-76
2023/02/04 04:35:09;;;;;;;6.43;3.50;;;3.50;99.90;;;;;;6180033;23;20748;-75
2023/02/04 04:37:35;;;;;;;16.43;5.30;;;3.50;99.90;;;;;;6180420;23;20404;-75
2023/02/04 04:40:02;;;;;;;7.90;3.73;;;3.40;99.90;;;;;;6180523;23;20411;-75
2023/02/04 04:42:30;;;;;;;8.07;4.00;;;3.40;99.90;;;;;;6179698;23;20417;-76
2023/02/04 04:44:57;;;;;;;6.13;3.10;;;3.30;99.90;;;;;;6180465;23;20446;-75
2023/02/04 04:47:23;;;;;;;5.67;3.17;;;3.40;99.90;;;;;;6180219;23;20417;-75
2023/02/04 04:49:50;;;;;;;10.83;3.70;;;3.40;99.90;;;;;;6180420;23;20410;-75
2023/02/04 04:52:17;;;;;;;12.10;3.73;;;3.30;99.90;;;;;;6180192;23;20420;-75
2023/02/04 04:54:44;;;;;;;12.40;3.87;;;;;;;;;;6179915;23;20995;-75
2023/02/04 04:57:11;;;;;;;11.90;3.70;;;3.30;99.90;;;;;;6179740;23;20914;-74
2023/02/04 04:59:39;;;;;;;9.57;3.00;;;3.10;99.90;;;;;;6179754;23;20885;-75
2023/02/04 05:02:05;;;;;;;7.53;3.00;;;3.10;99.90;;;;;;6179999;23;20905;-76
2023/02/04 05:04:32;;;;;;;13.80;3.37;;;3.10;99.90;;;;;;6180072;23;20624;-76
2023/02/04 05:06:59;;;;;;;5.03;3.80;;;3.10;99.90;;;;;;6180130;23;20400;-75
2023/02/04 05:09:26;;;;;;;4.70;2.90;;;3.10;99.90;;;;;;6179735;23;20418;-75
2023/02/04 05:11:52;;;;;;;9.20;3.03;;;3.00;99.90;;;;;;6180147;23;20416;-75
2023/02/04 05:14:19;;;;;;;17.17;4.07;;;3.00;99.90;;;;;;6182866;23;20412;-76
2023/02/04 05:16:47;;;;;;;7.93;3.97;;;3.00;99.90;;;;;;6182735;23;20411;-81
2023/02/04 05:19:14;;;;;;;6.60;3.90;;;3.00;99.90;;;;;;6182001;23;20422;-81
2023/02/04 05:21:41;;;;;;;6.93;3.50;;;3.10;99.90;;;;;;6182528;23;20918;-82
2023/02/04 05:24:07;;;;;;;4.80;2.87;;;3.10;99.90;;;;;;6181372;23;20413;-84
2023/02/04 05:26:41;;;;;;;13.40;4.53;;;3.90;99.90;;;;;;6182513;23;20617;-81
2023/02/04 05:29:09;;;;;;;5.20;4.23;;;3.20;99.90;;;;;;6181977;23;20427;-83
2023/02/04 05:31:36;;;;;;;11.87;3.33;;;3.30;99.90;;;;;;6184722;23;20416;-80
2023/02/04 05:34:04;;;;;;;7.80;3.83;;;3.20;99.90;;;;;;6183928;23;20396;-83
2023/02/04 05:36:38;;;;;;;6.20;2.40;;;3.20;99.90;;;;;;6184093;23;20404;-83
2023/02/04 05:39:05;;;;;;;5.70;4.47;;;3.20;99.90;;;;;;6181358;23;20458;-82
2023/02/04 05:41:32;;;;;;;9.00;2.70;;;3.30;99.90;;;;;;6182970;23;20726;-81
2023/02/04 05:43:59;;;;;;;12.40;3.23;;;3.30;99.90;;;;;;6185702;23;20432;-81
2023/02/04 05:46:26;;;;;;;7.60;3.23;;;3.30;99.90;;;;;;6184153;23;20518;-82
2023/02/04 05:48:52;;;;;;;12.00;3.50;;;3.10;99.90;;;;;;6184150;23;20419;-82
2023/02/04 05:51:20;;;;;;;7.00;3.47;;;3.50;99.90;;;;;;6181414;23;20939;-83
2023/02/04 05:53:47;;;;;;;10.00;3.60;;;3.20;99.90;;;;;;6184251;23;20542;-81
2023/02/04 05:56:14;;;;;;;9.30;3.77;;;3.20;99.90;;;;;;6183018;23;20411;-80
2023/02/04 05:58:41;;;;;;;8.30;3.90;;;3.20;99.90;;;;;;6181916;23;20408;-80
2023/02/04 06:01:07;;;;;;;3.60;3.00;;;3.20;99.90;;;;;;6184341;23;20443;-81
2023/02/04 06:03:34;;;;;;;7.80;3.30;;;3.30;99.90;;;;;;6183096;23;20971;-83
2023/02/04 06:06:01;;;;;;;8.10;3.60;;;3.30;99.90;;;;;;6181649;23;21039;-80
2023/02/04 06:08:29;;;;;;;23.63;3.60;;;3.30;99.90;;;;;;6184964;23;20412;-81
2023/02/04 06:10:56;;;;;;;9.53;2.97;;;3.30;99.90;;;;;;6184335;23;20407;-82
2023/02/04 06:13:22;;;;;;;8.30;3.37;;;3.30;99.90;;;;;;6183844;23;20416;-84
2023/02/04 06:15:49;;;;;;;9.73;4.50;;;3.30;99.90;;;;;;6181191;23;20412;-82
2023/02/04 06:18:16;;;;;;;7.60;4.10;;;3.30;99.90;;;;;;6183047;23;20416;-83
2023/02/04 06:20:43;;;;;;;6.43;4.30;;;3.30;99.90;;;;;;6188756;23;20396;-84
2023/02/04 06:23:10;;;;;;;7.23;4.23;;;3.60;99.90;;;;;;6188168;23;20816;-84
2023/02/04 06:25:38;;;;;;;6.07;3.00;;;3.20;99.90;;;;;;6182378;23;20443;-84
2023/02/04 06:28:04;;;;;;;5.80;3.23;;;3.30;99.90;;;;;;6181981;23;20425;-82
2023/02/04 06:30:31;;;;;;;10.30;3.17;;;3.40;99.90;;;;;;6182926;23;20413;-83
2023/02/04 06:32:58;;;;;;;9.43;3.20;;;3.30;99.90;;;;;;6180781;23;20502;-82
2023/02/04 06:35:25;;;;;;;11.53;3.90;;;3.30;99.90;;;;;;6180623;23;20454;-84
2023/02/04 06:37:51;;;;;;;9.20;4.00;;;3.30;99.90;;;;;;6181008;23;20472;-82
2023/02/04 06:40:18;;;;;;;8.80;3.77;;;3.30;99.90;;;;;;6183804;23;20400;-81
2023/02/04 06:42:46;;;;;;;7.40;3.90;;;3.40;99.90;;;;;;6181825;23;20413;-81
2023/02/04 06:45:13;;;;;;;7.47;3.40;;;2.90;99.90;;;;;;6182904;23;20517;-83
2023/02/04 06:47:40;;;;;;;7.70;3.30;;;3.20;99.90;;;;;;6184974;23;20407;-84
2023/02/04 06:50:07;;;;;;;10.83;3.73;;;3.40;99.90;;;;;;6184702;23;20564;-85
2023/02/04 06:52:34;;;;;;;11.23;4.27;;;3.30;99.90;;;;;;6184824;23;20526;-83
2023/02/04 06:55:01;;;;;;;6.03;3.57;;;3.20;99.90;;;;;;6190034;23;20635;-82
2023/02/04 06:57:28;;;;;;;13.50;6.40;;;3.20;99.90;;;;;;6186786;23;20416;-83
2023/02/04 06:59:56;;;;;;;20.43;3.90;;;3.50;99.90;;;;;;6188077;23;20468;-84
2023/02/04 07:02:23;;;;;;;5.53;3.40;;;3.30;99.90;;;;;;6185942;23;20426;-83
2023/02/04 07:04:49;;;;;;;10.90;4.20;;;3.20;99.90;;;;;;6184791;23;20723;-80
2023/02/04 07:07:16;;;;;;;7.23;4.20;;;3.20;99.90;;;;;;6184436;23;20392;-82
2023/02/04 07:09:43;;;;;;;7.50;4.20;;;;;;;;;;6178924;23;20426;-78
2023/02/04 07:12:10;;;;;;;7.00;4.10;;;3.30;99.90;;;;;;6179024;23;20920;-75
2023/02/04 07:14:37;;;;;;;10.30;4.07;;;3.30;99.90;;;;;;6178783;23;20419;-78
2023/02/04 07:17:05;;;;;;;8.60;3.80;;;3.50;99.90;;;;;;6197389;23;20421;-82
2023/02/04 07:19:32;;;;;;;5.77;2.97;;;3.30;99.90;;;;;;6196039;23;20480;-82
2023/02/04 07:21:59;;;;;;;10.57;3.37;;;3.30;99.90;;;;;;6186419;23;20412;-80
2023/02/04 07:24:26;;;;;;;9.40;4.17;;;3.50;99.90;;;;;;6181242;23;20423;-81
2023/02/04 07:26:52;;;;;;;10.70;3.20;;;3.30;99.90;;;;;;6180724;23;20458;-80
2023/02/04 07:29:19;;;;;;;8.53;3.30;;;3.40;99.90;;;;;;6181843;23;20413;-80
2023/02/04 07:31:46;;;;;;;5.20;2.90;;;3.40;99.90;;;;;;6181517;23;20603;-81
2023/02/04 07:34:15;;;;;;;3.70;3.30;;;3.50;99.90;;;;;;6179748;23;20423;-78
2023/02/04 07:36:41;;;;;;;7.37;2.73;;;3.40;99.90;;;;;;6179700;23;20400;-78
2023/02/04 07:39:11;;;;;;;10.80;2.70;;;3.50;99.90;;;;;;6194914;23;20456;-88
2023/02/04 07:41:38;;;;;;;6.50;3.40;;;3.40;99.90;;;;;;6236551;22;20449;-79
2023/02/04 07:44:05;;;;;;;11.27;3.77;;;3.40;99.90;;;;;;6249473;23;20424;-85
2023/02/04 07:46:32;;;;;;;7.10;2.73;;;3.50;99.90;;;;;;6259767;22;20529;-83
2023/02/04 07:48:58;;;;;;;10.90;3.67;;;3.40;99.90;;;;;;6258130;23;20737;-81
2023/02/04 07:51:27;;;;;;;6.10;2.93;;;3.40;99.90;;;;;;6259769;23;20405;-83
2023/02/04 07:53:53;;;;;;;8.10;3.17;;;3.50;99.90;;;;;;6259656;23;20482;-82
2023/02/04 07:56:20;;;;;;;12.93;3.73;;;3.40;99.90;;;;;;6257541;23;20888;-84
2023/02/04 07:58:47;;;;;;;5.07;2.40;;;3.40;99.90;;;;;;6258111;23;20416;-83
2023/02/04 08:01:13;;;;;;;12.77;3.70;;;3.40;99.90;;;;;;6257393;23;20402;-84
2023/02/04 08:03:41;;;;;;;8.57;3.73;;;3.60;99.90;;;;;;6257336;23;20469;-83
2023/02/04 08:06:08;;;;;;;10.93;3.50;;;3.50;99.90;;;;;;6260862;23;20769;-84
2023/02/04 08:08:36;;;;;;;4.43;3.00;;;3.40;99.90;;;;;;6257406;23;20474;-83
2023/02/04 08:11:03;;;;;;;14.77;3.97;;;3.50;99.90;;;;;;6253511;23;20407;-82
2023/02/04 08:13:29;;;;;;;3.97;3.20;;;3.50;99.90;;;;;;6254362;23;20404;-80
2023/02/04 08:15:57;;;;;;;6.03;3.00;;;;;;;;;;6251271;23;20417;-83
2023/02/04 08:18:24;;;;;;;7.47;3.60;;;3.50;99.90;;;;;;6255927;23;20390;-81
2023/02/04 08:20:51;;;;;;;7.53;3.40;;;3.50;99.90;;;;;;6256687;23;20431;-85
2023/02/04 08:23:18;;;;;;;4.63;3.33;;;;;;;;;;6255494;23;20402;-82
2023/02/04 08:25:46;;;;;;;3.30;2.93;;;3.60;99.90;;;;;;6249895;23;20434;-84
2023/02/04 08:28:13;;;;;;;7.63;3.40;;;3.60;99.90;;;;;;6251882;23;20394;-79
2023/02/04 08:30:39;;;;;;;4.33;3.10;;;3.60;99.90;;;;;;6253147;23;20481;-83
2023/02/04 08:33:06;;;;;;;11.13;3.60;;;3.60;99.90;;;;;;6255593;23;20394;-81
2023/02/04 08:35:33;;;;;;;6.80;3.50;;;3.60;99.90;;;;;;6251587;23;20417;-87
2023/02/04 08:38:00;;;;;;;8.87;3.70;;;3.70;99.90;;;;;;6243144;23;20492;-85
2023/02/04 08:40:26;;;;;;;9.43;3.10;;;3.80;99.90;;;;;;6243349;23;20935;-85
2023/02/04 08:42:54;;;;;;;8.67;3.00;;;3.80;99.90;;;;;;6242470;23;20438;-89
2023/02/04 08:45:21;;;;;;;9.80;2.80;;;3.80;99.90;;;;;;6242393;23;20393;-89
2023/02/04 08:47:48;;;;;;;12.83;3.50;;;3.90;99.90;;;;;;6244718;23;20398;-87
2023/02/04 08:50:15;;;;;;;9.13;4.20;;;3.80;99.90;;;;;;6242883;23;20421;-85
2023/02/04 08:52:42;;;;;;;6.57;4.33;;;3.90;99.90;;;;;;6241832;23;20472;-87
2023/02/04 08:55:09;;;;;;;8.67;4.23;;;4.00;99.90;;;;;;6242972;23;20415;-90
2023/02/04 08:57:35;;;;;;;6.43;3.50;;;3.80;99.90;;;;;;6245142;23;20402;-86
2023/02/04 09:00:04;;;;;;;5.37;3.30;;;3.80;99.90;;;;;;6245722;23;20399;-87
2023/02/04 09:05:07;;;;;;;9.63;3.67;;;4.10;99.90;;;;;;6242447;22;20464;-94
2023/02/04 09:07:36;;;;;;;9.83;3.87;;;4.30;99.90;;;;;;6245483;23;20450;-95
2023/02/04 09:10:05;;;;;;;9.40;3.33;;;4.50;99.90;;;;;;6244258;23;20413;-91
2023/02/04 09:12:33;;;;;;;6.27;2.67;;;4.40;99.90;;;;;;6244856;23;20472;-93
2023/02/04 09:15:00;;;;;;;5.60;3.20;;;4.60;99.90;;;;;;6245444;23;20539;-91
2023/02/04 09:17:28;;;;;;;15.43;3.13;;;4.90;99.90;;;;;;6247854;23;20403;-92
2023/02/04 09:19:55;;;;;;;13.20;4.53;;;5.30;99.90;;;;;;6257448;23;20434;-83
2023/02/04 09:22:22;;;;;;;7.50;2.93;;;4.30;99.90;;;;;;6268888;22;20484;-83
2023/02/04 09:24:49;;;;;;;8.03;3.30;;;4.50;99.90;;;;;;6258643;23;20407;-95
2023/02/04 09:27:16;;;;;;;8.67;3.10;;;4.60;99.90;;;;;;6244701;23;20473;-90
2023/02/04 09:29:42;;;;;;;9.60;2.60;;;5.10;99.90;;;;;;6247312;23;20425;-91
2023/02/04 09:32:09;;;;;;;9.33;4.27;;;5.30;99.90;;;;;;6247496;23;20489;-89
2023/02/04 09:34:38;;;;;;;9.33;2.33;;;5.60;99.90;;;;;;6248089;23;20414;-92
2023/02/04 09:37:05;;;;;;;5.17;4.67;;;5.20;99.90;;;;;;6245162;23;20460;-90
2023/02/04 09:39:31;;;;;;;8.43;2.83;;;4.70;99.90;;;;;;6246631;23;20410;-92
2023/02/04 09:41:59;;;;;;;12.27;3.60;;;4.60;99.90;;;;;;6250703;23;20505;-92
2023/02/04 09:44:28;;;;;;;7.03;3.17;;;4.50;99.90;;;;;;6244623;23;20859;-82
2023/02/04 09:46:58;;;;;;;9.90;3.40;;;4.40;99.90;;;;;;6244487;23;20531;-82
2023/02/04 09:49:26;;;;;;;7.17;3.27;;;4.20;99.90;;;;;;6246209;23;20731;-87
2023/02/04 09:51:55;;;;;;;6.40;2.40;;;4.60;99.90;;;;;;6243388;23;20990;-84
2023/02/04 09:54:23;;;;;;;5.03;2.80;;;5.00;99.90;;;;;;6245786;23;20418;-80
2023/02/04 09:56:52;;;;;;;13.40;3.80;;;5.40;99.90;;;;;;6244885;23;20409;-85
2023/02/04 10:20:04;;;;;;;11.40;3.50;;;4.40;99.90;;;;;;6262248;22;20465;-92
2023/02/04 10:22:30;;;;;;;7.23;2.90;;;4.30;99.90;;;;;;6260255;23;20406;-86
2023/02/04 10:24:58;;;;;;;13.93;4.03;;;4.90;99.90;;;;;;6258392;23;20496;-90
2023/02/04 10:27:25;;;;;;;5.73;2.40;;;5.00;99.90;;;;;;6264562;23;20501;-91
2023/02/04 10:29:56;;;;;;;4.40;2.87;;;5.00;99.90;;;;;;6263935;22;20406;-94
2023/02/04 10:32:29;;;;;;;11.27;4.80;;;4.90;99.90;;;;;;6263936;23;20391;-95
2023/02/04 10:35:00;;;;;;;11.20;4.60;;;5.10;99.90;;;;;;6261334;23;20410;-92
2023/02/04 10:37:30;;;;;;;7.43;2.80;;;5.10;99.90;;;;;;6260657;23;20414;-92
2023/02/04 10:39:58;;;;;;;4.53;2.43;;;4.50;99.90;;;;;;6263638;23;20422;-90
2023/02/04 10:42:27;;;;;;;8.77;2.07;;;5.00;99.90;;;;;;6261717;23;20422;-90
2023/02/04 10:44:55;;;;;;;1.77;1.57;;;5.10;99.90;;;;;;6261124;23;20410;-90
2023/02/04 10:47:24;;;;;;;2.67;1.70;;;3.90;99.90;;;;;;6261987;23;20464;-92
2023/02/04 10:49:54;;;;;;;7.10;1.67;;;5.20;99.90;;;;;;6261367;23;20418;-88
2023/02/04 10:52:24;;;;;;;7.67;2.10;;;5.20;99.90;;;;;;6266687;23;20414;-90
2023/02/04 10:54:51;;;;;;;2.43;1.60;;;5.40;99.90;;;;;;6273880;22;20405;-81
2023/02/04 11:15:41;;;;;;;3.03;1.40;;;6.70;99.90;;;;;;6242866;22;20458;-83
2023/02/04 11:18:11;;;;;;;1.40;1.30;;;7.50;99.90;;;;;;6229172;23;20399;-81
2023/02/04 11:20:38;;;;;;;4.27;2.10;;;7.40;99.90;;;;;;6216751;23;20399;-78
2023/02/04 11:23:17;;;;;;;2.03;1.50;;;7.40;99.90;;;;;;6212447;23;20399;-78
2023/02/04 11:25:44;;;;;;;2.73;1.67;;;7.00;99.90;;;;;;6213347;23;20429;-78
2023/02/04 11:28:15;;;;;;;4.30;1.87;;;6.80;99.90;;;;;;6215316;23;20533;-78
2023/02/04 11:30:43;;;;;;;1.13;1.00;;;6.60;99.90;;;;;;6212904;23;20768;-78
2023/02/04 11:33:24;;;;;;;5.37;1.27;;;6.30;99.90;;;;;;6213268;23;20407;-80
2023/02/04 11:36:01;;;;;;;2.33;1.40;;;6.70;99.90;;;;;;6212389;23;20777;-79
2023/02/04 11:38:30;;;;;;;3.90;1.97;;;7.80;99.90;;;;;;6214297;23;20384;-79
2023/02/04 11:40:59;;;;;;;2.07;1.60;;;8.60;99.90;;;;;;6215983;23;20952;-81
2023/02/04 11:43:29;;;;;;;7.90;1.60;;;9.10;99.90;;;;;;6232162;23;20426;-81
2023/02/04 11:46:16;;;;;;;1.73;1.60;;;9.20;99.90;;;;;;6231437;23;20410;-80
2023/02/04 11:48:45;;;;;;;2.70;1.50;;;8.70;99.90;;;;;;6231611;23;20482;-82
2023/02/04 11:51:33;;;;;;;5.60;2.00;;;9.20;99.90;;;;;;6234581;23;20482;-81
2023/02/04 11:54:00;;;;;;;4.80;2.50;;;8.40;99.90;;;;;;6210776;23;20377;-82
2023/02/04 11:56:31;;;;;;;3.17;2.23;;;7.80;99.90;;;;;;6211390;23;20412;-81
2023/02/04 11:58:58;;;;;;;3.27;1.40;;;9.20;99.90;;;;;;6210459;23;20460;-81
2023/02/04 12:01:32;;;;;;;1.90;1.33;;;8.70;99.90;;;;;;6212713;23;20426;-82
2023/02/04 12:04:01;;;;;;;4.73;2.20;;;8.70;99.90;;;;;;6211811;23;20384;-83
2023/02/04 12:06:34;;;;;;;3.07;1.97;;;7.90;99.90;;;;;;6211407;23;20403;-82
2023/02/04 12:09:07;;;;;;;2.60;1.47;;;6.20;99.90;;;;;;6211718;23;20388;-81
2023/02/04 12:11:35;;;;;;;1.60;1.40;;;5.70;99.90;;;;;;6207411;23;20609;-83
2023/02/04 12:14:08;;;;;;;2.70;1.50;;;5.80;99.90;;;;;;6210886;23;20491;-81
2023/02/04 12:16:44;;;;;;;1.63;1.27;;;5.90;99.90;;;;;;6210658;23;20424;-82
2023/02/04 12:19:11;;;;;;;2.23;1.33;;;6.20;99.90;;;;;;6209824;23;20423;-80
2023/02/04 12:21:38;;;;;;;2.23;1.50;;;6.40;99.90;;;;;;6206855;23;20436;-81
2023/02/04 12:24:05;;;;;;;4.23;1.90;;;7.20;99.90;;;;;;6207693;23;20861;-81
2023/02/04 12:26:32;;;;;;;2.47;1.20;;;7.40;99.90;;;;;;6206206;23;20407;-81
2023/02/04 12:29:01;;;;;;;2.60;1.57;;;7.30;99.90;;;;;;6209419;23;20407;-82
2023/02/04 12:31:28;;;;;;;2.30;1.53;;;7.40;99.90;;;;;;6211866;23;20442;-81
2023/02/04 12:33:56;;;;;;;4.53;2.60;;;7.40;99.90;;;;;;6211004;23;20436;-81
2023/02/04 12:36:23;;;;;;;1.43;1.33;;;6.80;99.90;;;;;;6208929;23;20424;-82
2023/02/04 12:38:50;;;;;;;1.53;1.40;;;6.30;99.90;;;;;;6207892;23;20400;-80
2023/02/04 12:41:18;;;;;;;5.83;1.50;;;6.70;99.90;;;;;;6209324;23;20464;-81
2023/02/04 12:43:45;;;;;;;1.50;1.40;;;6.50;99.90;;;;;;6212071;23;20435;-82
2023/02/04 12:46:12;;;;;;;1.87;1.67;;;6.30;99.90;;;;;;6214516;23;20404;-81
2023/02/04 12:48:39;;;;;;;2.67;1.33;;;6.70;99.90;;;;;;6213195;23;20504;-82
2023/02/04 12:51:08;;;;;;;1.77;1.50;;;6.70;99.90;;;;;;6212711;23;20475;-82
2023/02/04 12:53:34;;;;;;;5.13;2.57;;;6.10;99.90;;;;;;6212054;23;20424;-82
2023/02/04 12:56:01;;;;;;;1.70;1.60;;;6.00;99.90;;;;;;6213066;23;20452;-82
2023/02/04 12:58:28;;;;;;;3.30;1.30;;;6.20;99.90;;;;;;6214248;23;20407;-81
2023/02/04 13:00:55;;;;;;;3.40;1.90;;;6.00;99.90;;;;;;6214446;23;20409;-82
2023/02/04 13:03:23;;;;;;;2.03;1.50;;;6.00;99.90;;;;;;6213282;23;20459;-82
2023/02/04 13:05:49;;;;;;;2.43;1.87;;;5.90;99.90;;;;;;6204293;23;20464;-80
2023/02/04 13:08:18;;;;;;;2.80;1.40;;;6.20;99.90;;;;;;6183908;23;20456;-81
2023/02/04 13:10:49;;;;;;;4.70;2.47;;;6.30;99.90;;;;;;6181073;23;20404;-80
2023/02/04 13:13:15;;;;;;;1.70;1.50;;;6.30;99.90;;;;;;6176556;23;20519;-78
2023/02/04 13:15:42;;;;;;;2.00;1.90;;;5.50;99.90;;;;;;6176428;23;20756;-79
2023/02/04 13:18:09;;;;;;;2.40;1.20;;;5.00;99.90;;;;;;6181055;23;20733;-79
2023/02/04 13:20:36;;;;;;;3.57;1.40;;;5.20;99.90;;;;;;6176568;23;20906;-77
2023/02/04 13:23:03;;;;;;;2.27;1.70;;;5.70;99.90;;;;;;6176069;23;20412;-77
2023/02/04 13:25:31;;;;;;;6.27;1.90;;;5.80;99.90;;;;;;6175058;23;20454;-78
2023/02/04 13:27:58;;;;;;;6.43;2.97;;;5.60;99.90;;;;;;6174752;23;20451;-77
2023/02/04 13:30:24;;;;;;;5.30;1.93;;;5.30;99.90;;;;;;6176474;23;20699;-78
2023/02/04 13:32:51;;;;;;;5.40;1.70;;;5.30;99.90;;;;;;6175446;23;20957;-76
2023/02/04 13:35:19;;;;;;;2.33;1.77;;;5.50;99.90;;;;;;6176055;23;20404;-79
2023/02/04 13:37:45;;;;;;;2.13;1.70;;;5.20;99.90;;;;;;6181159;23;20407;-76
2023/02/04 13:40:13;;;;;;;2.27;1.90;;;5.20;99.90;;;;;;6175151;23;20841;-79
2023/02/04 13:42:41;;;;;;;4.63;1.90;;;5.10;99.90;;;;;;6174268;23;20463;-77